createdAt,value
2022-11-27T08:38:31.920Z,7.76
2022-11-27T08:41:17.751Z,9.17
2022-11-27T08:44:06.775Z,10.57
2022-11-27T08:46:54.822Z,10.88
2022-11-27T08:49:44.873Z,11.03
2022-11-27T08:52:32.096Z,12.07
2022-11-27T08:55:17.508Z,12.86
2022-11-27T08:58:03.899Z,13.69
2022-11-27T09:00:49.747Z,14.46
2022-11-27T09:03:35.798Z,14.15
2022-11-27T09:06:24.558Z,14.16
2022-11-27T09:09:10.125Z,15.04
2022-11-27T09:11:55.738Z,14.82
2022-11-27T09:14:41.906Z,14.54
2022-11-27T09:17:27.507Z,13.81
2022-11-27T09:20:14.445Z,14.09
2022-11-27T09:23:02.408Z,13.71
2022-11-27T09:25:49.630Z,14.61
2022-11-27T09:28:36.476Z,14.35
2022-11-27T09:31:22.930Z,14.30
2022-11-27T09:34:08.722Z,12.64
2022-11-27T09:36:54.093Z,11.98
2022-11-27T09:39:39.848Z,11.14
2022-11-27T09:42:39.954Z,12.79
2022-11-27T09:45:27.024Z,13.43
2022-11-27T09:48:18.816Z,14.87
2022-11-27T09:51:11.685Z,15.38
2022-11-27T09:54:46.753Z,14.55
2022-11-27T09:57:38.391Z,14.36
2022-11-27T10:00:24.046Z,13.69
2022-11-27T10:03:14.891Z,14.10
2022-11-27T10:06:24.027Z,14.22
2022-11-27T10:09:23.530Z,14.67
2022-11-27T10:12:45.195Z,14.02
2022-11-27T10:15:48.696Z,15.33
2022-11-27T10:18:47.918Z,16.80
2022-11-27T10:21:52.446Z,16.08
2022-11-27T10:24:56.255Z,16.04
2022-11-27T10:27:51.859Z,16.45
2022-11-27T10:30:43.683Z,17.45
2022-11-27T10:33:42.371Z,17.91
2022-11-27T10:36:41.430Z,17.27
2022-11-27T10:39:41.158Z,17.29
2022-11-27T10:42:41.439Z,17.83
2022-11-27T10:45:46.335Z,15.47
2022-11-27T10:48:33.357Z,13.90
2022-11-27T10:51:22.833Z,12.36
2022-11-27T10:54:21.987Z,11.11
2022-11-27T10:57:22.279Z,10.30
2022-11-27T11:00:24.906Z,10.31
2022-11-27T11:03:17.403Z,10.00
2022-11-27T11:06:22.239Z,10.08
2022-11-27T11:09:17.546Z,10.32
2022-11-27T11:12:16.827Z,10.32
2022-11-27T11:15:02.669Z,10.32
2022-11-27T11:17:48.411Z,10.26
2022-11-27T11:20:34.085Z,10.62
2022-11-27T11:23:27.158Z,10.61
2022-11-27T11:26:29.840Z,10.27
2022-11-27T11:29:35.304Z,10.72
2022-11-27T11:32:20.661Z,11.82
2022-11-27T11:35:23.666Z,12.64
2022-11-27T11:38:16.979Z,12.48
2022-11-27T11:41:06.217Z,12.18
2022-11-27T11:43:59.182Z,11.55
2022-11-27T11:46:51.702Z,10.90
2022-11-27T11:49:37.536Z,10.07
2022-11-27T11:52:38.950Z,10.01
2022-11-27T11:55:47.301Z,9.87
2022-11-27T11:58:57.106Z,9.72
2022-11-27T12:02:19.546Z,9.39
2022-11-27T12:05:36.884Z,9.11
2022-11-27T12:08:35.303Z,9.24
2022-11-27T12:11:59.530Z,9.12
2022-11-27T12:14:52.515Z,8.92
2022-11-27T12:17:54.951Z,9.01
2022-11-27T12:20:46.009Z,8.85
2022-11-27T12:23:40.595Z,8.84
2022-11-27T12:26:32.626Z,8.52
2022-11-27T12:29:48.923Z,8.40
2022-11-27T12:32:55.907Z,8.30
2022-11-27T12:35:41.799Z,8.12
2022-11-27T12:39:09.258Z,8.20
2022-11-27T12:41:57.755Z,8.55
2022-11-27T12:45:06.226Z,8.36
2022-11-27T12:48:14.029Z,8.19
2022-11-27T12:51:24.034Z,8.00
2022-11-27T12:54:41.453Z,7.64
2022-11-27T12:57:41.267Z,7.64
2022-11-27T13:00:31.135Z,7.53
2022-11-27T13:03:28.598Z,7.50
2022-11-27T13:06:20.129Z,7.65
2022-11-27T13:09:12.928Z,7.57
2022-11-27T13:11:59.855Z,7.39
2022-11-27T13:14:57.942Z,7.40
2022-11-27T13:17:44.465Z,7.25
2022-11-27T13:20:36.085Z,7.38
2022-11-27T13:23:21.928Z,7.35
2022-11-27T13:26:24.865Z,7.57
2022-11-27T13:29:21.638Z,7.43
2022-11-27T13:32:08.836Z,7.19
2022-11-27T13:34:59.280Z,6.95
2022-11-27T13:37:49.508Z,7.05
2022-11-27T13:40:44.417Z,7.08
2022-11-27T13:43:47.613Z,6.71
2022-11-27T13:46:49.223Z,6.42
2022-11-27T13:49:37.948Z,6.52
2022-11-27T13:52:23.740Z,6.65
2022-11-27T13:55:09.919Z,6.75
2022-11-27T13:57:58.426Z,6.28
2022-11-27T14:00:45.606Z,6.45
2022-11-27T14:03:31.145Z,6.19
2022-11-27T14:06:30.474Z,6.35
2022-11-27T14:09:16.404Z,6.50
2022-11-27T14:12:22.324Z,6.05
2022-11-27T14:15:17.002Z,6.37
2022-11-27T14:18:29.933Z,6.36
2022-11-27T14:21:35.751Z,6.31
2022-11-27T14:24:33.490Z,6.26
2022-11-27T14:27:22.809Z,6.26
2022-11-27T14:30:21.959Z,6.24
2022-11-27T14:33:18.113Z,6.11
2022-11-27T14:36:06.791Z,6.16
2022-11-27T14:38:52.689Z,6.16
2022-11-27T14:41:38.187Z,6.07
2022-11-27T14:44:23.854Z,5.97
